sensor_id;sensor_type;location;lat;lon;timestamp;temperature;humidity
70928;SHT31;58587;53.034;18.576;2023-05-10T14:35:27;32.39;16.86
70928;SHT31;58587;53.034;18.576;2023-05-10T14:37:52;32.84;16.81
70928;SHT31;58587;53.034;18.576;2023-05-10T14:40:18;32.23;17.52
70928;SHT31;58587;53.034;18.576;2023-05-10T14:42:44;31.59;17.59
70928;SHT31;58587;53.034;18.576;2023-05-10T14:45:10;31.86;17.50
70928;SHT31;58587;53.034;18.576;2023-05-10T14:47:36;31.85;17.14
70928;SHT31;58587;53.034;18.576;2023-05-10T14:50:01;31.01;17.69
70928;SHT31;58587;53.034;18.576;2023-05-10T14:52:27;30.56;18.00
70928;SHT31;58587;53.034;18.576;2023-05-10T14:54:52;31.35;18.20
70928;SHT31;58587;53.034;18.576;2023-05-10T14:57:18;31.78;17.35
70928;SHT31;58587;53.034;18.576;2023-05-10T14:59:43;31.86;17.30
70928;SHT31;58587;53.034;18.576;2023-05-10T15:02:09;32.08;16.97
70928;SHT31;58587;53.034;18.576;2023-05-10T15:04:35;31.90;16.81
70928;SHT31;58587;53.034;18.576;2023-05-10T15:07:00;31.38;17.23
70928;SHT31;58587;53.034;18.576;2023-05-10T15:09:26;31.11;17.27
70928;SHT31;58587;53.034;18.576;2023-05-10T15:11:53;30.53;17.99
70928;SHT31;58587;53.034;18.576;2023-05-10T15:14:18;29.85;18.55
70928;SHT31;58587;53.034;18.576;2023-05-10T15:16:44;30.50;18.18
70928;SHT31;58587;53.034;18.576;2023-05-10T15:19:09;30.94;18.18
70928;SHT31;58587;53.034;18.576;2023-05-10T15:21:34;30.70;18.81
70928;SHT31;58587;53.034;18.576;2023-05-10T15:24:05;30.66;18.32
70928;SHT31;58587;53.034;18.576;2023-05-10T15:26:30;30.48;18.44
70928;SHT31;58587;53.034;18.576;2023-05-10T15:28:56;29.51;18.69
70928;SHT31;58587;53.034;18.576;2023-05-10T15:31:21;29.81;18.95
70928;SHT31;58587;53.034;18.576;2023-05-10T15:33:47;29.27;19.72
70928;SHT31;58587;53.034;18.576;2023-05-10T15:36:12;28.05;20.59
70928;SHT31;58587;53.034;18.576;2023-05-10T15:38:38;27.55;20.55
70928;SHT31;58587;53.034;18.576;2023-05-10T15:41:03;25.80;21.62
70928;SHT31;58587;53.034;18.576;2023-05-10T15:43:29;25.61;23.12
70928;SHT31;58587;53.034;18.576;2023-05-10T15:45:54;25.77;22.20
70928;SHT31;58587;53.034;18.576;2023-05-10T15:48:19;25.71;22.05
70928;SHT31;58587;53.034;18.576;2023-05-10T15:50:45;25.41;22.76
70928;SHT31;58587;53.034;18.576;2023-05-10T15:53:10;24.79;22.95
70928;SHT31;58587;53.034;18.576;2023-05-10T15:55:36;24.31;23.48
70928;SHT31;58587;53.034;18.576;2023-05-10T15:58:01;24.17;23.63
70928;SHT31;58587;53.034;18.576;2023-05-10T16:00:27;23.80;24.05
70928;SHT31;58587;53.034;18.576;2023-05-10T16:02:53;23.37;24.52
70928;SHT31;58587;53.034;18.576;2023-05-10T16:05:18;23.12;25.11
70928;SHT31;58587;53.034;18.576;2023-05-10T16:07:43;22.58;25.74
70928;SHT31;58587;53.034;18.576;2023-05-10T16:10:10;22.40;25.96
70928;SHT31;58587;53.034;18.576;2023-05-10T16:12:35;22.17;26.83
70928;SHT31;58587;53.034;18.576;2023-05-10T16:15:01;21.57;26.77
70928;SHT31;58587;53.034;18.576;2023-05-10T16:17:26;21.53;26.91
70928;SHT31;58587;53.034;18.576;2023-05-10T16:19:52;21.15;27.00
70928;SHT31;58587;53.034;18.576;2023-05-10T16:22:18;20.91;27.52
70928;SHT31;58587;53.034;18.576;2023-05-10T16:24:43;20.58;28.06
70928;SHT31;58587;53.034;18.576;2023-05-10T16:27:08;20.58;27.95
70928;SHT31;58587;53.034;18.576;2023-05-10T16:29:34;20.36;28.16
70928;SHT31;58587;53.034;18.576;2023-05-10T16:31:59;20.33;28.07
70928;SHT31;58587;53.034;18.576;2023-05-10T16:34:25;20.24;28.41
70928;SHT31;58587;53.034;18.576;2023-05-10T16:36:51;20.13;28.96
70928;SHT31;58587;53.034;18.576;2023-05-10T16:39:16;19.98;29.07
70928;SHT31;58587;53.034;18.576;2023-05-10T16:41:41;19.80;29.56
70928;SHT31;58587;53.034;18.576;2023-05-10T16:44:07;19.59;29.41
70928;SHT31;58587;53.034;18.576;2023-05-10T16:46:32;19.51;29.38
70928;SHT31;58587;53.034;18.576;2023-05-10T16:48:58;19.48;29.62
70928;SHT31;58587;53.034;18.576;2023-05-10T16:51:25;19.38;29.86
70928;SHT31;58587;53.034;18.576;2023-05-10T16:53:50;19.28;30.34
70928;SHT31;58587;53.034;18.576;2023-05-10T16:56:15;19.15;29.88
70928;SHT31;58587;53.034;18.576;2023-05-10T16:58:42;19.08;30.33
70928;SHT31;58587;53.034;18.576;2023-05-10T17:01:08;18.92;30.63
70928;SHT31;58587;53.034;18.576;2023-05-10T17:03:33;18.98;30.43
70928;SHT31;58587;53.034;18.576;2023-05-10T17:05:59;18.87;30.38
70928;SHT31;58587;53.034;18.576;2023-05-10T17:08:24;18.77;30.66
70928;SHT31;58587;53.034;18.576;2023-05-10T17:10:50;18.61;30.79
70928;SHT31;58587;53.034;18.576;2023-05-10T17:13:15;18.54;30.72
70928;SHT31;58587;53.034;18.576;2023-05-10T17:15:41;18.51;31.22
70928;SHT31;58587;53.034;18.576;2023-05-10T17:18:06;18.43;31.26
70928;SHT31;58587;53.034;18.576;2023-05-10T17:20:33;18.40;31.27
70928;SHT31;58587;53.034;18.576;2023-05-10T17:22:58;18.36;31.51
70928;SHT31;58587;53.034;18.576;2023-05-10T17:25:24;18.30;31.69
70928;SHT31;58587;53.034;18.576;2023-05-10T17:27:49;18.19;32.56
70928;SHT31;58587;53.034;18.576;2023-05-10T17:30:15;18.13;32.15
70928;SHT31;58587;53.034;18.576;2023-05-10T17:32:41;18.07;32.53
70928;SHT31;58587;53.034;18.576;2023-05-10T17:35:06;18.00;32.12
70928;SHT31;58587;53.034;18.576;2023-05-10T17:37:32;17.95;32.46
70928;SHT31;58587;53.034;18.576;2023-05-10T17:40:00;17.78;32.29
70928;SHT31;58587;53.034;18.576;2023-05-10T17:42:28;17.78;32.36
70928;SHT31;58587;53.034;18.576;2023-05-10T17:44:54;17.76;32.22
70928;SHT31;58587;53.034;18.576;2023-05-10T17:47:19;17.69;32.55
70928;SHT31;58587;53.034;18.576;2023-05-10T17:49:45;17.61;32.48
70928;SHT31;58587;53.034;18.576;2023-05-10T17:52:10;17.54;33.15
70928;SHT31;58587;53.034;18.576;2023-05-10T17:54:36;17.48;32.96
70928;SHT31;58587;53.034;18.576;2023-05-10T17:57:01;17.39;32.75
70928;SHT31;58587;53.034;18.576;2023-05-10T17:59:27;17.38;33.17
70928;SHT31;58587;53.034;18.576;2023-05-10T18:01:53;17.32;33.12
70928;SHT31;58587;53.034;18.576;2023-05-10T18:04:18;17.30;33.22
70928;SHT31;58587;53.034;18.576;2023-05-10T18:06:44;17.21;33.49
70928;SHT31;58587;53.034;18.576;2023-05-10T18:09:09;17.10;33.78
70928;SHT31;58587;53.034;18.576;2023-05-10T18:11:35;17.00;34.27
70928;SHT31;58587;53.034;18.576;2023-05-10T18:14:02;16.97;34.20
70928;SHT31;58587;53.034;18.576;2023-05-10T18:16:27;16.85;34.59
70928;SHT31;58587;53.034;18.576;2023-05-10T18:18:53;16.76;34.99
70928;SHT31;58587;53.034;18.576;2023-05-10T18:21:18;16.69;35.22
70928;SHT31;58587;53.034;18.576;2023-05-10T18:23:43;16.64;35.09
70928;SHT31;58587;53.034;18.576;2023-05-10T18:26:09;16.61;35.35
70928;SHT31;58587;53.034;18.576;2023-05-10T18:28:35;16.53;35.47
70928;SHT31;58587;53.034;18.576;2023-05-10T18:31:00;16.49;36.05
70928;SHT31;58587;53.034;18.576;2023-05-10T18:33:26;16.40;36.88
70928;SHT31;58587;53.034;18.576;2023-05-10T18:35:52;16.32;37.48
70928;SHT31;58587;53.034;18.576;2023-05-10T18:38:18;16.25;37.47
70928;SHT31;58587;53.034;18.576;2023-05-10T18:40:43;16.22;37.37
70928;SHT31;58587;53.034;18.576;2023-05-10T18:43:08;16.15;37.75
70928;SHT31;58587;53.034;18.576;2023-05-10T18:45:34;16.09;37.70
70928;SHT31;58587;53.034;18.576;2023-05-10T18:47:59;16.08;38.19
70928;SHT31;58587;53.034;18.576;2023-05-10T18:50:25;15.99;38.70
70928;SHT31;58587;53.034;18.576;2023-05-10T18:52:50;15.88;38.79
70928;SHT31;58587;53.034;18.576;2023-05-10T18:55:15;15.82;39.00
70928;SHT31;58587;53.034;18.576;2023-05-10T18:57:41;15.79;38.43
70928;SHT31;58587;53.034;18.576;2023-05-10T19:00:08;15.72;38.68
70928;SHT31;58587;53.034;18.576;2023-05-10T19:02:35;15.61;38.79
70928;SHT31;58587;53.034;18.576;2023-05-10T19:05:01;15.59;39.02
70928;SHT31;58587;53.034;18.576;2023-05-10T19:07:26;15.55;39.16
70928;SHT31;58587;53.034;18.576;2023-05-10T19:09:51;15.47;39.70
70928;SHT31;58587;53.034;18.576;2023-05-10T19:12:17;15.43;39.38
70928;SHT31;58587;53.034;18.576;2023-05-10T19:14:42;15.38;39.73
70928;SHT31;58587;53.034;18.576;2023-05-10T19:17:08;15.26;39.46
70928;SHT31;58587;53.034;18.576;2023-05-10T19:19:33;15.22;39.83
70928;SHT31;58587;53.034;18.576;2023-05-10T19:21:58;15.19;39.78
70928;SHT31;58587;53.034;18.576;2023-05-10T19:24:24;15.17;39.70
70928;SHT31;58587;53.034;18.576;2023-05-10T19:26:49;15.10;39.74
70928;SHT31;58587;53.034;18.576;2023-05-10T19:29:15;15.08;39.64
70928;SHT31;58587;53.034;18.576;2023-05-10T19:31:40;15.03;39.75
70928;SHT31;58587;53.034;18.576;2023-05-10T19:34:06;14.97;39.87
70928;SHT31;58587;53.034;18.576;2023-05-10T19:36:31;14.87;40.18
70928;SHT31;58587;53.034;18.576;2023-05-10T19:38:56;14.86;39.96
70928;SHT31;58587;53.034;18.576;2023-05-10T19:41:22;14.76;40.67
70928;SHT31;58587;53.034;18.576;2023-05-10T19:43:47;14.73;39.98
70928;SHT31;58587;53.034;18.576;2023-05-10T19:46:13;14.68;40.54
70928;SHT31;58587;53.034;18.576;2023-05-10T19:48:38;14.59;40.77
70928;SHT31;58587;53.034;18.576;2023-05-10T19:51:04;14.55;40.47
70928;SHT31;58587;53.034;18.576;2023-05-10T19:53:31;14.52;40.51
70928;SHT31;58587;53.034;18.576;2023-05-10T19:56:04;14.51;40.31
70928;SHT31;58587;53.034;18.576;2023-05-10T19:58:33;14.42;40.78
70928;SHT31;58587;53.034;18.576;2023-05-10T20:00:59;14.43;40.75
70928;SHT31;58587;53.034;18.576;2023-05-10T20:03:24;14.35;40.75
70928;SHT31;58587;53.034;18.576;2023-05-10T20:05:50;14.33;40.29
70928;SHT31;58587;53.034;18.576;2023-05-10T20:08:15;14.36;40.40
70928;SHT31;58587;53.034;18.576;2023-05-10T20:10:41;14.36;40.36
70928;SHT31;58587;53.034;18.576;2023-05-10T20:13:06;14.39;40.33
70928;SHT31;58587;53.034;18.576;2023-05-10T20:15:32;14.28;40.63
70928;SHT31;58587;53.034;18.576;2023-05-10T20:17:58;14.26;40.29
70928;SHT31;58587;53.034;18.576;2023-05-10T20:20:23;14.21;40.50
70928;SHT31;58587;53.034;18.576;2023-05-10T20:22:49;14.17;40.46
70928;SHT31;58587;53.034;18.576;2023-05-10T20:25:16;14.18;40.28
70928;SHT31;58587;53.034;18.576;2023-05-10T20:27:41;14.12;40.47
70928;SHT31;58587;53.034;18.576;2023-05-10T20:30:08;14.07;40.81
70928;SHT31;58587;53.034;18.576;2023-05-10T20:32:34;14.02;41.03
70928;SHT31;58587;53.034;18.576;2023-05-10T20:35:00;13.97;41.09
70928;SHT31;58587;53.034;18.576;2023-05-10T20:37:26;13.98;41.28
70928;SHT31;58587;53.034;18.576;2023-05-10T20:39:52;13.92;40.97
70928;SHT31;58587;53.034;18.576;2023-05-10T20:42:18;13.91;41.55
70928;SHT31;58587;53.034;18.576;2023-05-10T20:44:43;13.88;41.45
70928;SHT31;58587;53.034;18.576;2023-05-10T20:47:08;13.85;41.50
70928;SHT31;58587;53.034;18.576;2023-05-10T20:49:34;13.77;41.79
70928;SHT31;58587;53.034;18.576;2023-05-10T20:52:02;13.73;42.28
70928;SHT31;58587;53.034;18.576;2023-05-10T20:54:27;13.70;42.04
70928;SHT31;58587;53.034;18.576;2023-05-10T20:56:53;13.66;42.22
70928;SHT31;58587;53.034;18.576;2023-05-10T20:59:18;13.63;42.15
70928;SHT31;58587;53.034;18.576;2023-05-10T21:01:44;13.58;42.30
70928;SHT31;58587;53.034;18.576;2023-05-10T21:04:10;13.63;42.37
70928;SHT31;58587;53.034;18.576;2023-05-10T21:06:35;13.57;42.14
70928;SHT31;58587;53.034;18.576;2023-05-10T21:09:01;13.51;42.70
70928;SHT31;58587;53.034;18.576;2023-05-10T21:11:26;13.43;42.57
70928;SHT31;58587;53.034;18.576;2023-05-10T21:13:52;13.37;42.69
